sensor_id;sensor_type;location;lat;lon;timestamp;P1;durP1;ratioP1;P2;durP2;ratioP2
809;SDS011;387;48.772;9.186;2023-08-01T00:00:30;9.47;;;3.87;;
809;SDS011;387;48.772;9.186;2023-08-01T00:02:55;6.20;;;3.93;;
809;SDS011;387;48.772;9.186;2023-08-01T00:05:21;7.80;;;4.10;;
809;SDS011;387;48.772;9.186;2023-08-01T00:07:47;12.87;;;4.03;;
809;SDS011;387;48.772;9.186;2023-08-01T00:10:12;7.07;;;4.37;;
809;SDS011;387;48.772;9.186;2023-08-01T00:12:38;8.90;;;4.67;;
809;SDS011;387;48.772;9.186;2023-08-01T00:15:04;7.60;;;3.77;;
809;SDS011;387;48.772;9.186;2023-08-01T00:17:30;8.63;;;4.10;;
809;SDS011;387;48.772;9.186;2023-08-01T00:19:55;10.07;;;4.57;;
809;SDS011;387;48.772;9.186;2023-08-01T00:22:21;4.87;;;3.27;;
809;SDS011;387;48.772;9.186;2023-08-01T00:24:47;6.43;;;3.63;;
809;SDS011;387;48.772;9.186;2023-08-01T00:27:13;8.00;;;4.30;;
809;SDS011;387;48.772;9.186;2023-08-01T00:29:38;8.67;;;4.10;;
809;SDS011;387;48.772;9.186;2023-08-01T00:32:04;6.63;;;3.83;;
809;SDS011;387;48.772;9.186;2023-08-01T00:34:30;7.93;;;3.67;;
809;SDS011;387;48.772;9.186;2023-08-01T00:36:56;6.23;;;3.63;;
809;SDS011;387;48.772;9.186;2023-08-01T00:39:22;7.07;;;3.63;;
809;SDS011;387;48.772;9.186;2023-08-01T00:41:48;7.57;;;3.90;;
809;SDS011;387;48.772;9.186;2023-08-01T00:44:13;8.57;;;3.97;;
809;SDS011;387;48.772;9.186;2023-08-01T00:46:39;10.50;;;4.37;;
809;SDS011;387;48.772;9.186;2023-08-01T00:49:04;7.60;;;3.70;;
809;SDS011;387;48.772;9.186;2023-08-01T00:51:31;8.60;;;3.90;;
809;SDS011;387;48.772;9.186;2023-08-01T00:53:57;9.47;;;3.47;;
809;SDS011;387;48.772;9.186;2023-08-01T00:56:23;9.83;;;5.03;;
809;SDS011;387;48.772;9.186;2023-08-01T00:58:49;7.03;;;4.10;;
809;SDS011;387;48.772;9.186;2023-08-01T01:01:15;8.43;;;4.23;;
809;SDS011;387;48.772;9.186;2023-08-01T01:03:40;8.47;;;4.63;;
809;SDS011;387;48.772;9.186;2023-08-01T01:06:11;5.97;;;3.87;;
809;SDS011;387;48.772;9.186;2023-08-01T01:08:42;5.43;;;3.40;;
809;SDS011;387;48.772;9.186;2023-08-01T01:11:07;10.43;;;5.03;;
809;SDS011;387;48.772;9.186;2023-08-01T01:13:33;4.90;;;3.40;;
809;SDS011;387;48.772;9.186;2023-08-01T01:15:58;6.20;;;3.50;;
809;SDS011;387;48.772;9.186;2023-08-01T01:18:24;7.67;;;4.00;;
809;SDS011;387;48.772;9.186;2023-08-01T01:20:50;6.93;;;3.87;;
809;SDS011;387;48.772;9.186;2023-08-01T01:23:15;5.50;;;3.37;;
809;SDS011;387;48.772;9.186;2023-08-01T01:25:42;6.83;;;3.80;;
809;SDS011;387;48.772;9.186;2023-08-01T01:28:08;8.03;;;3.73;;
809;SDS011;387;48.772;9.186;2023-08-01T01:30:36;7.20;;;3.60;;
809;SDS011;387;48.772;9.186;2023-08-01T01:33:02;11.47;;;4.13;;
809;SDS011;387;48.772;9.186;2023-08-01T01:35:29;8.53;;;3.83;;
809;SDS011;387;48.772;9.186;2023-08-01T01:37:55;8.30;;;3.60;;
809;SDS011;387;48.772;9.186;2023-08-01T01:40:20;6.20;;;3.63;;
809;SDS011;387;48.772;9.186;2023-08-01T01:42:46;5.60;;;3.40;;
809;SDS011;387;48.772;9.186;2023-08-01T01:45:13;7.03;;;3.70;;
809;SDS011;387;48.772;9.186;2023-08-01T01:47:39;9.23;;;4.00;;
809;SDS011;387;48.772;9.186;2023-08-01T01:50:04;7.40;;;4.33;;
809;SDS011;387;48.772;9.186;2023-08-01T01:52:30;9.87;;;4.27;;
809;SDS011;387;48.772;9.186;2023-08-01T01:54:56;6.57;;;3.60;;
809;SDS011;387;48.772;9.186;2023-08-01T01:57:22;8.40;;;4.23;;
809;SDS011;387;48.772;9.186;2023-08-01T01:59:47;5.77;;;3.53;;
809;SDS011;387;48.772;9.186;2023-08-01T02:02:13;7.43;;;4.60;;
809;SDS011;387;48.772;9.186;2023-08-01T02:04:39;6.80;;;3.83;;
809;SDS011;387;48.772;9.186;2023-08-01T02:07:05;9.60;;;4.10;;
809;SDS011;387;48.772;9.186;2023-08-01T02:09:30;7.37;;;4.10;;
809;SDS011;387;48.772;9.186;2023-08-01T02:11:56;8.43;;;4.13;;
809;SDS011;387;48.772;9.186;2023-08-01T02:14:22;9.80;;;4.10;;
809;SDS011;387;48.772;9.186;2023-08-01T02:16:47;7.50;;;3.67;;
809;SDS011;387;48.772;9.186;2023-08-01T02:19:13;9.27;;;4.43;;
809;SDS011;387;48.772;9.186;2023-08-01T02:21:38;10.27;;;3.97;;
809;SDS011;387;48.772;9.186;2023-08-01T02:24:04;7.03;;;4.00;;
809;SDS011;387;48.772;9.186;2023-08-01T02:26:30;6.00;;;3.37;;
809;SDS011;387;48.772;9.186;2023-08-01T02:28:56;6.30;;;3.97;;
809;SDS011;387;48.772;9.186;2023-08-01T02:31:21;5.97;;;4.03;;
809;SDS011;387;48.772;9.186;2023-08-01T02:33:47;8.80;;;4.30;;
809;SDS011;387;48.772;9.186;2023-08-01T02:36:12;8.63;;;4.63;;
809;SDS011;387;48.772;9.186;2023-08-01T02:38:38;10.47;;;5.07;;
809;SDS011;387;48.772;9.186;2023-08-01T02:41:04;8.77;;;5.10;;
809;SDS011;387;48.772;9.186;2023-08-01T02:43:30;6.10;;;3.73;;
809;SDS011;387;48.772;9.186;2023-08-01T02:45:55;9.33;;;4.47;;
809;SDS011;387;48.772;9.186;2023-08-01T02:48:21;7.70;;;4.17;;
809;SDS011;387;48.772;9.186;2023-08-01T02:50:46;7.53;;;4.33;;
809;SDS011;387;48.772;9.186;2023-08-01T02:53:12;8.07;;;4.87;;
809;SDS011;387;48.772;9.186;2023-08-01T02:55:38;9.00;;;4.20;;
809;SDS011;387;48.772;9.186;2023-08-01T02:58:04;8.60;;;3.60;;
809;SDS011;387;48.772;9.186;2023-08-01T03:00:29;7.57;;;4.43;;
809;SDS011;387;48.772;9.186;2023-08-01T03:02:56;6.63;;;4.10;;
809;SDS011;387;48.772;9.186;2023-08-01T03:05:22;6.13;;;3.87;;
809;SDS011;387;48.772;9.186;2023-08-01T03:07:47;6.60;;;3.67;;
809;SDS011;387;48.772;9.186;2023-08-01T03:10:13;8.80;;;4.40;;
809;SDS011;387;48.772;9.186;2023-08-01T03:12:39;6.33;;;3.63;;
809;SDS011;387;48.772;9.186;2023-08-01T03:15:05;9.50;;;4.47;;
809;SDS011;387;48.772;9.186;2023-08-01T03:17:33;8.17;;;4.00;;
809;SDS011;387;48.772;9.186;2023-08-01T03:19:59;9.37;;;3.80;;
809;SDS011;387;48.772;9.186;2023-08-01T03:22:24;8.63;;;4.27;;
809;SDS011;387;48.772;9.186;2023-08-01T03:24:50;12.50;;;4.10;;
809;SDS011;387;48.772;9.186;2023-08-01T03:27:15;9.13;;;4.33;;
809;SDS011;387;48.772;9.186;2023-08-01T03:29:41;7.23;;;3.83;;
809;SDS011;387;48.772;9.186;2023-08-01T03:32:07;12.80;;;4.17;;
809;SDS011;387;48.772;9.186;2023-08-01T03:34:32;10.07;;;3.60;;
809;SDS011;387;48.772;9.186;2023-08-01T03:36:58;6.50;;;4.20;;
809;SDS011;387;48.772;9.186;2023-08-01T03:39:23;8.17;;;4.50;;
809;SDS011;387;48.772;9.186;2023-08-01T03:41:49;11.77;;;3.83;;
809;SDS011;387;48.772;9.186;2023-08-01T03:44:14;7.43;;;4.33;;
809;SDS011;387;48.772;9.186;2023-08-01T03:46:42;7.70;;;4.27;;
809;SDS011;387;48.772;9.186;2023-08-01T03:49:07;7.90;;;4.20;;
809;SDS011;387;48.772;9.186;2023-08-01T03:51:34;8.30;;;4.10;;
809;SDS011;387;48.772;9.186;2023-08-01T03:54:00;6.23;;;3.30;;
809;SDS011;387;48.772;9.186;2023-08-01T03:56:25;7.40;;;3.93;;
809;SDS011;387;48.772;9.186;2023-08-01T03:58:52;8.13;;;4.00;;
809;SDS011;387;48.772;9.186;2023-08-01T04:01:18;11.17;;;3.67;;
809;SDS011;387;48.772;9.186;2023-08-01T04:03:43;8.40;;;3.80;;
809;SDS011;387;48.772;9.186;2023-08-01T04:06:09;7.83;;;3.93;;
809;SDS011;387;48.772;9.186;2023-08-01T04:08:35;7.73;;;3.33;;
809;SDS011;387;48.772;9.186;2023-08-01T04:11:01;5.07;;;3.23;;
809;SDS011;387;48.772;9.186;2023-08-01T04:13:27;6.87;;;3.57;;
809;SDS011;387;48.772;9.186;2023-08-01T04:15:52;6.67;;;3.70;;
809;SDS011;387;48.772;9.186;2023-08-01T04:18:18;14.27;;;5.77;;
809;SDS011;387;48.772;9.186;2023-08-01T04:20:43;7.97;;;4.50;;
809;SDS011;387;48.772;9.186;2023-08-01T04:23:09;7.90;;;4.27;;
809;SDS011;387;48.772;9.186;2023-08-01T04:25:35;7.70;;;3.57;;
809;SDS011;387;48.772;9.186;2023-08-01T04:28:00;7.23;;;3.60;;
809;SDS011;387;48.772;9.186;2023-08-01T04:30:26;8.47;;;4.37;;
809;SDS011;387;48.772;9.186;2023-08-01T04:32:51;7.23;;;4.10;;
809;SDS011;387;48.772;9.186;2023-08-01T04:35:17;7.27;;;3.80;;
809;SDS011;387;48.772;9.186;2023-08-01T04:37:42;8.17;;;4.10;;
809;SDS011;387;48.772;9.186;2023-08-01T04:40:08;6.27;;;3.67;;
809;SDS011;387;48.772;9.186;2023-08-01T04:42:34;7.93;;;3.83;;
809;SDS011;387;48.772;9.186;2023-08-01T04:44:59;6.57;;;4.00;;
809;SDS011;387;48.772;9.186;2023-08-01T04:47:25;6.20;;;3.33;;
809;SDS011;387;48.772;9.186;2023-08-01T04:49:50;6.57;;;3.40;;
809;SDS011;387;48.772;9.186;2023-08-01T04:52:16;5.40;;;3.40;;
809;SDS011;387;48.772;9.186;2023-08-01T04:54:42;5.33;;;3.20;;
809;SDS011;387;48.772;9.186;2023-08-01T04:57:07;5.60;;;3.30;;
809;SDS011;387;48.772;9.186;2023-08-01T04:59:33;6.13;;;3.20;;
809;SDS011;387;48.772;9.186;2023-08-01T05:01:58;7.13;;;3.03;;
809;SDS011;387;48.772;9.186;2023-08-01T05:04:24;10.13;;;4.20;;
809;SDS011;387;48.772;9.186;2023-08-01T05:06:50;5.83;;;3.80;;
809;SDS011;387;48.772;9.186;2023-08-01T05:09:15;9.17;;;4.10;;
809;SDS011;387;48.772;9.186;2023-08-01T05:11:41;5.93;;;3.57;;
809;SDS011;387;48.772;9.186;2023-08-01T05:14:06;7.37;;;3.43;;
809;SDS011;387;48.772;9.186;2023-08-01T05:16:32;4.90;;;3.37;;
809;SDS011;387;48.772;9.186;2023-08-01T05:18:57;7.73;;;4.43;;
809;SDS011;387;48.772;9.186;2023-08-01T05:21:23;10.10;;;4.50;;
809;SDS011;387;48.772;9.186;2023-08-01T05:23:49;9.90;;;4.20;;
809;SDS011;387;48.772;9.186;2023-08-01T05:26:15;9.10;;;4.30;;
809;SDS011;387;48.772;9.186;2023-08-01T05:28:41;10.47;;;3.93;;
809;SDS011;387;48.772;9.186;2023-08-01T05:31:06;8.03;;;4.40;;
809;SDS011;387;48.772;9.186;2023-08-01T05:33:32;6.17;;;3.70;;
809;SDS011;387;48.772;9.186;2023-08-01T05:35:57;8.60;;;3.83;;
809;SDS011;387;48.772;9.186;2023-08-01T05:38:23;5.97;;;4.20;;
809;SDS011;387;48.772;9.186;2023-08-01T05:40:49;8.40;;;4.10;;
809;SDS011;387;48.772;9.186;2023-08-01T05:43:14;7.73;;;4.00;;
809;SDS011;387;48.772;9.186;2023-08-01T05:45:40;5.77;;;3.80;;
809;SDS011;387;48.772;9.186;2023-08-01T05:48:06;13.70;;;4.00;;
809;SDS011;387;48.772;9.186;2023-08-01T05:50:32;6.03;;;3.53;;
809;SDS011;387;48.772;9.186;2023-08-01T05:52:57;9.00;;;4.43;;
809;SDS011;387;48.772;9.186;2023-08-01T05:55:23;8.93;;;4.77;;
809;SDS011;387;48.772;9.186;2023-08-01T05:57:48;8.13;;;4.40;;
809;SDS011;387;48.772;9.186;2023-08-01T06:00:17;6.60;;;3.93;;
809;SDS011;387;48.772;9.186;2023-08-01T06:02:45;9.97;;;4.50;;
809;SDS011;387;48.772;9.186;2023-08-01T06:05:11;11.17;;;5.20;;
809;SDS011;387;48.772;9.186;2023-08-01T06:07:37;9.13;;;4.40;;
809;SDS011;387;48.772;9.186;2023-08-01T06:10:02;13.87;;;4.50;;
809;SDS011;387;48.772;9.186;2023-08-01T06:12:29;8.27;;;4.13;;
809;SDS011;387;48.772;9.186;2023-08-01T06:14:55;9.07;;;4.07;;
809;SDS011;387;48.772;9.186;2023-08-01T06:17:20;8.20;;;3.93;;
809;SDS011;387;48.772;9.186;2023-08-01T06:19:46;7.40;;;3.63;;
809;SDS011;387;48.772;9.186;2023-08-01T06:22:12;7.33;;;4.17;;
809;SDS011;387;48.772;9.186;2023-08-01T06:24:38;8.83;;;3.70;;
809;SDS011;387;48.772;9.186;2023-08-01T06:27:03;14.50;;;4.03;;
809;SDS011;387;48.772;9.186;2023-08-01T06:29:30;8.40;;;4.50;;
809;SDS011;387;48.772;9.186;2023-08-01T06:31:56;7.47;;;4.10;;
809;SDS011;387;48.772;9.186;2023-08-01T06:34:21;6.10;;;4.03;;
809;SDS011;387;48.772;9.186;2023-08-01T06:36:47;11.27;;;4.43;;
809;SDS011;387;48.772;9.186;2023-08-01T06:39:13;6.87;;;4.47;;
809;SDS011;387;48.772;9.186;2023-08-01T06:41:38;8.93;;;4.67;;
809;SDS011;387;48.772;9.186;2023-08-01T06:44:04;9.40;;;5.13;;
809;SDS011;387;48.772;9.186;2023-08-01T06:46:30;10.10;;;5.07;;
809;SDS011;387;48.772;9.186;2023-08-01T06:48:55;11.30;;;5.20;;
809;SDS011;387;48.772;9.186;2023-08-01T06:51:21;10.27;;;6.10;;
809;SDS011;387;48.772;9.186;2023-08-01T06:53:46;11.43;;;5.70;;
809;SDS011;387;48.772;9.186;2023-08-01T06:56:12;10.87;;;6.20;;
809;SDS011;387;48.772;9.186;2023-08-01T06:58:38;12.47;;;5.90;;
809;SDS011;387;48.772;9.186;2023-08-01T07:01:03;10.20;;;5.80;;
809;SDS011;387;48.772;9.186;2023-08-01T07:03:29;12.07;;;5.90;;
809;SDS011;387;48.772;9.186;2023-08-01T07:05:54;17.60;;;6.37;;
809;SDS011;387;48.772;9.186;2023-08-01T07:08:20;13.97;;;6.47;;
809;SDS011;387;48.772;9.186;2023-08-01T07:10:46;11.87;;;6.17;;
809;SDS011;387;48.772;9.186;2023-08-01T07:13:12;12.40;;;6.50;;
809;SDS011;387;48.772;9.186;2023-08-01T07:15:37;11.43;;;6.10;;
809;SDS011;387;48.772;9.186;2023-08-01T07:18:03;13.20;;;6.63;;
809;SDS011;387;48.772;9.186;2023-08-01T07:20:29;12.13;;;5.67;;
809;SDS011;387;48.772;9.186;2023-08-01T07:22:54;15.67;;;6.93;;
809;SDS011;387;48.772;9.186;2023-08-01T07:25:20;12.17;;;5.90;;
809;SDS011;387;48.772;9.186;2023-08-01T07:27:45;14.33;;;6.73;;
809;SDS011;387;48.772;9.186;2023-08-01T07:30:11;11.13;;;5.60;;
809;SDS011;387;48.772;9.186;2023-08-01T07:32:37;14.07;;;6.37;;
809;SDS011;387;48.772;9.186;2023-08-01T07:35:04;15.00;;;6.20;;
809;SDS011;387;48.772;9.186;2023-08-01T07:37:30;13.07;;;6.20;;
809;SDS011;387;48.772;9.186;2023-08-01T07:39:58;12.57;;;5.40;;
809;SDS011;387;48.772;9.186;2023-08-01T07:42:23;19.13;;;6.60;;
809;SDS011;387;48.772;9.186;2023-08-01T07:44:49;14.90;;;6.53;;
809;SDS011;387;48.772;9.186;2023-08-01T07:47:14;14.00;;;6.10;;
809;SDS011;387;48.772;9.186;2023-08-01T07:49:40;13.93;;;5.83;;
809;SDS011;387;48.772;9.186;2023-08-01T07:52:06;14.23;;;5.90;;
809;SDS011;387;48.772;9.186;2023-08-01T07:54:32;13.07;;;5.80;;
809;SDS011;387;48.772;9.186;2023-08-01T07:56:57;8.20;;;4.67;;
809;SDS011;387;48.772;9.186;2023-08-01T07:59:23;9.60;;;4.43;;
809;SDS011;387;48.772;9.186;2023-08-01T08:01:48;11.43;;;5.20;;
809;SDS011;387;48.772;9.186;2023-08-01T08:04:14;13.77;;;6.33;;
809;SDS011;387;48.772;9.186;2023-08-01T08:06:40;6.70;;;3.80;;
809;SDS011;387;48.772;9.186;2023-08-01T08:09:06;10.70;;;4.23;;
809;SDS011;387;48.772;9.186;2023-08-01T08:11:31;10.30;;;5.07;;
809;SDS011;387;48.772;9.186;2023-08-01T08:13:58;8.33;;;3.60;;
809;SDS011;387;48.772;9.186;2023-08-01T08:16:24;8.93;;;4.03;;
809;SDS011;387;48.772;9.186;2023-08-01T08:18:50;7.00;;;4.10;;
809;SDS011;387;48.772;9.186;2023-08-01T08:21:16;7.80;;;3.43;;
809;SDS011;387;48.772;9.186;2023-08-01T08:23:42;7.17;;;4.03;;
809;SDS011;387;48.772;9.186;2023-08-01T08:26:07;9.10;;;3.77;;
809;SDS011;387;48.772;9.186;2023-08-01T08:28:33;6.97;;;2.97;;
809;SDS011;387;48.772;9.186;2023-08-01T08:30:59;5.10;;;2.93;;
809;SDS011;387;48.772;9.186;2023-08-01T08:33:26;6.97;;;3.43;;
809;SDS011;387;48.772;9.186;2023-08-01T08:35:52;7.47;;;3.07;;
809;SDS011;387;48.772;9.186;2023-08-01T08:38:18;6.53;;;3.20;;
809;SDS011;387;48.772;9.186;2023-08-01T08:40:48;6.63;;;3.53;;
809;SDS011;387;48.772;9.186;2023-08-01T08:43:23;6.70;;;3.27;;
809;SDS011;387;48.772;9.186;2023-08-01T08:45:51;5.97;;;3.53;;
809;SDS011;387;48.772;9.186;2023-08-01T08:48:20;12.90;;;3.77;;
809;SDS011;387;48.772;9.186;2023-08-01T08:50:46;6.80;;;3.10;;
809;SDS011;387;48.772;9.186;2023-08-01T08:53:13;6.30;;;3.20;;
809;SDS011;387;48.772;9.186;2023-08-01T08:55:39;8.63;;;4.07;;
809;SDS011;387;48.772;9.186;2023-08-01T08:58:05;6.50;;;3.60;;
809;SDS011;387;48.772;9.186;2023-08-01T09:00:32;4.70;;;3.27;;
809;SDS011;387;48.772;9.186;2023-08-01T09:02:58;6.70;;;3.80;;
809;SDS011;387;48.772;9.186;2023-08-01T09:05:27;10.17;;;3.77;;
809;SDS011;387;48.772;9.186;2023-08-01T09:07:56;5.83;;;3.10;;
809;SDS011;387;48.772;9.186;2023-08-01T09:10:23;6.00;;;3.30;;
809;SDS011;387;48.772;9.186;2023-08-01T09:12:49;5.83;;;3.10;;
809;SDS011;387;48.772;9.186;2023-08-01T09:15:15;6.20;;;3.20;;
809;SDS011;387;48.772;9.186;2023-08-01T09:17:53;4.80;;;2.47;;
809;SDS011;387;48.772;9.186;2023-08-01T09:20:26;4.50;;;2.57;;
809;SDS011;387;48.772;9.186;2023-08-01T09:22:52;6.97;;;3.70;;
809;SDS011;387;48.772;9.186;2023-08-01T09:25:18;5.23;;;2.93;;
809;SDS011;387;48.772;9.186;2023-08-01T09:27:44;4.60;;;2.43;;
809;SDS011;387;48.772;9.186;2023-08-01T09:30:10;6.63;;;2.80;;
809;SDS011;387;48.772;9.186;2023-08-01T09:32:55;4.60;;;2.60;;
809;SDS011;387;48.772;9.186;2023-08-01T09:35:21;3.87;;;2.13;;
809;SDS011;387;48.772;9.186;2023-08-01T09:37:47;6.53;;;2.70;;
809;SDS011;387;48.772;9.186;2023-08-01T09:40:14;4.77;;;2.53;;
809;SDS011;387;48.772;9.186;2023-08-01T09:42:42;5.63;;;2.83;;
809;SDS011;387;48.772;9.186;2023-08-01T09:45:13;4.20;;;2.00;;
809;SDS011;387;48.772;9.186;2023-08-01T09:47:40;3.87;;;2.10;;
809;SDS011;387;48.772;9.186;2023-08-01T09:50:06;3.53;;;1.90;;
809;SDS011;387;48.772;9.186;2023-08-01T09:52:33;4.53;;;1.93;;
809;SDS011;387;48.772;9.186;2023-08-01T09:54:59;3.60;;;1.90;;
809;SDS011;387;48.772;9.186;2023-08-01T09:57:26;2.70;;;1.73;;
809;SDS011;387;48.772;9.186;2023-08-01T09:59:56;3.30;;;1.37;;
809;SDS011;387;48.772;9.186;2023-08-01T10:02:24;1.87;;;1.17;;
809;SDS011;387;48.772;9.186;2023-08-01T10:04:54;2.70;;;1.50;;
809;SDS011;387;48.772;9.186;2023-08-01T10:07:24;4.37;;;1.70;;
809;SDS011;387;48.772;9.186;2023-08-01T10:09:57;2.37;;;1.47;;
809;SDS011;387;48.772;9.186;2023-08-01T10:12:25;1.40;;;1.03;;
809;SDS011;387;48.772;9.186;2023-08-01T10:14:52;1.60;;;1.10;;
809;SDS011;387;48.772;9.186;2023-08-01T10:17:19;1.27;;;0.93;;
809;SDS011;387;48.772;9.186;2023-08-01T10:19:47;2.60;;;1.10;;
809;SDS011;387;48.772;9.186;2023-08-01T10:22:15;4.83;;;1.07;;
809;SDS011;387;48.772;9.186;2023-08-01T10:24:42;1.63;;;0.93;;
809;SDS011;387;48.772;9.186;2023-08-01T10:27:12;2.20;;;1.13;;
809;SDS011;387;48.772;9.186;2023-08-01T10:29:38;2.50;;;1.10;;
809;SDS011;387;48.772;9.186;2023-08-01T10:32:06;2.03;;;1.20;;
809;SDS011;387;48.772;9.186;2023-08-01T10:34:32;2.97;;;1.20;;
809;SDS011;387;48.772;9.186;2023-08-01T10:36:58;1.80;;;0.93;;
809;SDS011;387;48.772;9.186;2023-08-01T10:39:25;3.13;;;0.97;;
809;SDS011;387;48.772;9.186;2023-08-01T10:42:01;1.80;;;1.00;;
809;SDS011;387;48.772;9.186;2023-08-01T10:44:28;2.00;;;1.03;;
809;SDS011;387;48.772;9.186;2023-08-01T10:54:44;1.23;;;1.00;;
809;SDS011;387;48.772;9.186;2023-08-01T10:57:14;1.70;;;1.10;;
809;SDS011;387;48.772;9.186;2023-08-01T10:59:42;4.10;;;1.43;;
809;SDS011;387;48.772;9.186;2023-08-01T11:02:08;1.43;;;0.90;;
809;SDS011;387;48.772;9.186;2023-08-01T11:04:34;2.13;;;1.30;;
809;SDS011;387;48.772;9.186;2023-08-01T11:06:59;2.10;;;1.00;;
809;SDS011;387;48.772;9.186;2023-08-01T11:09:26;2.10;;;1.10;;
809;SDS011;387;48.772;9.186;2023-08-01T11:11:56;1.33;;;1.00;;
809;SDS011;387;48.772;9.186;2023-08-01T11:14:24;3.00;;;1.33;;
809;SDS011;387;48.772;9.186;2023-08-01T11:16:51;1.43;;;1.10;;
809;SDS011;387;48.772;9.186;2023-08-01T11:19:27;1.30;;;0.90;;
809;SDS011;387;48.772;9.186;2023-08-01T11:21:54;2.33;;;1.40;;
809;SDS011;387;48.772;9.186;2023-08-01T11:24:22;2.63;;;1.43;;
809;SDS011;387;48.772;9.186;2023-08-01T11:26:48;2.90;;;1.70;;
809;SDS011;387;48.772;9.186;2023-08-01T11:29:15;2.47;;;1.23;;
809;SDS011;387;48.772;9.186;2023-08-01T11:31:52;2.50;;;1.33;;
809;SDS011;387;48.772;9.186;2023-08-01T11:34:22;3.93;;;1.40;;
809;SDS011;387;48.772;9.186;2023-08-01T11:36:47;1.67;;;1.33;;
809;SDS011;387;48.772;9.186;2023-08-01T11:39:14;4.60;;;1.53;;
809;SDS011;387;48.772;9.186;2023-08-01T11:41:40;2.30;;;1.43;;
809;SDS011;387;48.772;9.186;2023-08-01T11:44:06;3.73;;;1.60;;
809;SDS011;387;48.772;9.186;2023-08-01T11:46:34;2.77;;;1.67;;
809;SDS011;387;48.772;9.186;2023-08-01T11:49:03;2.20;;;1.47;;
809;SDS011;387;48.772;9.186;2023-08-01T11:51:38;2.20;;;1.33;;
809;SDS011;387;48.772;9.186;2023-08-01T11:54:08;2.07;;;1.47;;
809;SDS011;387;48.772;9.186;2023-08-01T11:56:36;1.83;;;1.30;;
809;SDS011;387;48.772;9.186;2023-08-01T11:59:13;2.23;;;1.40;;
809;SDS011;387;48.772;9.186;2023-08-01T12:01:41;2.30;;;1.57;;
809;SDS011;387;48.772;9.186;2023-08-01T12:04:08;1.97;;;1.33;;
809;SDS011;387;48.772;9.186;2023-08-01T12:06:34;3.60;;;1.90;;
809;SDS011;387;48.772;9.186;2023-08-01T12:09:09;1.90;;;1.40;;
809;SDS011;387;48.772;9.186;2023-08-01T12:11:36;2.40;;;1.67;;
809;SDS011;387;48.772;9.186;2023-08-01T12:14:06;3.53;;;1.80;;
809;SDS011;387;48.772;9.186;2023-08-01T12:16:37;5.10;;;1.60;;
809;SDS011;387;48.772;9.186;2023-08-01T12:19:03;3.30;;;1.80;;
809;SDS011;387;48.772;9.186;2023-08-01T12:21:31;2.03;;;1.60;;
809;SDS011;387;48.772;9.186;2023-08-01T12:23:58;3.87;;;2.00;;
809;SDS011;387;48.772;9.186;2023-08-01T12:26:23;9.70;;;2.13;;
809;SDS011;387;48.772;9.186;2023-08-01T12:28:49;2.13;;;1.37;;
809;SDS011;387;48.772;9.186;2023-08-01T12:31:16;1.83;;;1.20;;
809;SDS011;387;48.772;9.186;2023-08-01T12:33:43;2.33;;;1.50;;
809;SDS011;387;48.772;9.186;2023-08-01T12:36:09;2.87;;;1.50;;
809;SDS011;387;48.772;9.186;2023-08-01T12:38:34;2.73;;;1.53;;
809;SDS011;387;48.772;9.186;2023-08-01T12:41:00;2.73;;;1.80;;
809;SDS011;387;48.772;9.186;2023-08-01T12:43:26;3.70;;;1.43;;
809;SDS011;387;48.772;9.186;2023-08-01T12:45:52;3.63;;;1.20;;
809;SDS011;387;48.772;9.186;2023-08-01T12:48:18;3.50;;;1.63;;
809;SDS011;387;48.772;9.186;2023-08-01T12:50:44;2.30;;;1.83;;
809;SDS011;387;48.772;9.186;2023-08-01T12:53:11;2.30;;;1.40;;
809;SDS011;387;48.772;9.186;2023-08-01T12:55:37;4.10;;;2.17;;
809;SDS011;387;48.772;9.186;2023-08-01T12:58:03;3.67;;;1.47;;
809;SDS011;387;48.772;9.186;2023-08-01T13:00:29;4.73;;;1.63;;
809;SDS011;387;48.772;9.186;2023-08-01T13:02:55;4.57;;;1.60;;
809;SDS011;387;48.772;9.186;2023-08-01T13:05:21;3.10;;;1.67;;
809;SDS011;387;48.772;9.186;2023-08-01T13:07:46;3.77;;;1.63;;
809;SDS011;387;48.772;9.186;2023-08-01T13:10:12;3.53;;;1.50;;
809;SDS011;387;48.772;9.186;2023-08-01T13:12:37;2.90;;;1.30;;
809;SDS011;387;48.772;9.186;2023-08-01T13:15:03;2.53;;;1.70;;
809;SDS011;387;48.772;9.186;2023-08-01T13:17:29;2.40;;;1.70;;
809;SDS011;387;48.772;9.186;2023-08-01T13:19:55;3.43;;;1.80;;
809;SDS011;387;48.772;9.186;2023-08-01T13:22:21;2.73;;;1.67;;
809;SDS011;387;48.772;9.186;2023-08-01T13:24:46;7.20;;;1.90;;
809;SDS011;387;48.772;9.186;2023-08-01T13:27:12;3.20;;;1.87;;
809;SDS011;387;48.772;9.186;2023-08-01T13:29:38;3.47;;;1.40;;
809;SDS011;387;48.772;9.186;2023-08-01T13:32:05;2.60;;;1.53;;
809;SDS011;387;48.772;9.186;2023-08-01T13:34:31;2.60;;;1.80;;
809;SDS011;387;48.772;9.186;2023-08-01T13:36:57;3.03;;;1.70;;
809;SDS011;387;48.772;9.186;2023-08-01T13:39:22;2.33;;;1.93;;
809;SDS011;387;48.772;9.186;2023-08-01T13:41:48;2.37;;;1.80;;
809;SDS011;387;48.772;9.186;2023-08-01T13:44:13;5.83;;;2.00;;
809;SDS011;387;48.772;9.186;2023-08-01T13:46:39;9.13;;;2.50;;
809;SDS011;387;48.772;9.186;2023-08-01T13:49:05;4.40;;;1.97;;
809;SDS011;387;48.772;9.186;2023-08-01T13:51:33;4.37;;;2.40;;
809;SDS011;387;48.772;9.186;2023-08-01T13:53:59;3.27;;;1.97;;
809;SDS011;387;48.772;9.186;2023-08-01T13:56:25;4.93;;;2.43;;
809;SDS011;387;48.772;9.186;2023-08-01T13:58:51;2.80;;;1.87;;
809;SDS011;387;48.772;9.186;2023-08-01T14:01:17;2.07;;;1.60;;
809;SDS011;387;48.772;9.186;2023-08-01T14:03:45;4.37;;;1.80;;
809;SDS011;387;48.772;9.186;2023-08-01T14:06:12;5.00;;;2.97;;
809;SDS011;387;48.772;9.186;2023-08-01T14:08:39;7.03;;;3.10;;
809;SDS011;387;48.772;9.186;2023-08-01T14:11:06;4.77;;;3.20;;
809;SDS011;387;48.772;9.186;2023-08-01T14:13:34;3.30;;;2.20;;
809;SDS011;387;48.772;9.186;2023-08-01T14:16:01;3.00;;;1.63;;
809;SDS011;387;48.772;9.186;2023-08-01T14:18:30;3.87;;;1.90;;
809;SDS011;387;48.772;9.186;2023-08-01T14:20:56;3.80;;;1.90;;
809;SDS011;387;48.772;9.186;2023-08-01T14:23:21;2.17;;;1.60;;
809;SDS011;387;48.772;9.186;2023-08-01T14:25:48;3.10;;;1.90;;
809;SDS011;387;48.772;9.186;2023-08-01T14:28:13;3.27;;;2.30;;
809;SDS011;387;48.772;9.186;2023-08-01T14:30:39;3.37;;;1.73;;
809;SDS011;387;48.772;9.186;2023-08-01T14:33:06;4.80;;;2.23;;
809;SDS011;387;48.772;9.186;2023-08-01T14:35:33;2.47;;;1.60;;
809;SDS011;387;48.772;9.186;2023-08-01T14:37:59;3.13;;;1.87;;
809;SDS011;387;48.772;9.186;2023-08-01T14:40:25;2.20;;;1.50;;
809;SDS011;387;48.772;9.186;2023-08-01T14:42:51;3.60;;;1.83;;
809;SDS011;387;48.772;9.186;2023-08-01T14:45:17;3.83;;;1.83;;
809;SDS011;387;48.772;9.186;2023-08-01T14:47:43;3.60;;;2.00;;
809;SDS011;387;48.772;9.186;2023-08-01T14:50:09;6.10;;;2.80;;
809;SDS011;387;48.772;9.186;2023-08-01T14:52:35;3.63;;;1.93;;
809;SDS011;387;48.772;9.186;2023-08-01T14:55:01;3.90;;;2.20;;
809;SDS011;387;48.772;9.186;2023-08-01T14:57:27;2.77;;;1.60;;
809;SDS011;387;48.772;9.186;2023-08-01T14:59:53;2.73;;;1.90;;
809;SDS011;387;48.772;9.186;2023-08-01T15:02:19;3.50;;;2.10;;
809;SDS011;387;48.772;9.186;2023-08-01T15:04:45;2.87;;;2.20;;
809;SDS011;387;48.772;9.186;2023-08-01T15:07:11;3.90;;;2.03;;
809;SDS011;387;48.772;9.186;2023-08-01T15:09:36;3.50;;;2.20;;
809;SDS011;387;48.772;9.186;2023-08-01T15:12:02;7.53;;;2.27;;
809;SDS011;387;48.772;9.186;2023-08-01T15:14:28;2.87;;;1.80;;
809;SDS011;387;48.772;9.186;2023-08-01T15:16:53;2.30;;;2.07;;
809;SDS011;387;48.772;9.186;2023-08-01T15:19:20;4.33;;;2.10;;
809;SDS011;387;48.772;9.186;2023-08-01T15:21:45;3.03;;;1.80;;
809;SDS011;387;48.772;9.186;2023-08-01T15:24:11;5.50;;;1.87;;
809;SDS011;387;48.772;9.186;2023-08-01T15:26:37;2.43;;;1.87;;
809;SDS011;387;48.772;9.186;2023-08-01T15:29:02;4.93;;;1.70;;
809;SDS011;387;48.772;9.186;2023-08-01T15:31:28;2.33;;;1.70;;
809;SDS011;387;48.772;9.186;2023-08-01T15:33:54;3.47;;;2.00;;
809;SDS011;387;48.772;9.186;2023-08-01T15:36:25;3.27;;;2.07;;
809;SDS011;387;48.772;9.186;2023-08-01T15:38:53;2.47;;;1.50;;
809;SDS011;387;48.772;9.186;2023-08-01T15:41:18;3.43;;;1.90;;
809;SDS011;387;48.772;9.186;2023-08-01T15:43:44;3.77;;;1.93;;